Time;durP1;ratioP1;P1;durP2;ratioP2;P2;SDS_P1;SDS_P2;PMS_P1;PMS_P2;Temp;Humidity;BMP_temperature;BMP_pressure;BME280_temperature;BME280_humidity;BME280_pressure;Samples;Min_cycle;Max_cycle;Signal;HPM_P1;HPM_P2
2022/01/07 00:00:16;;;;;;;0.63;0.38;;;;;;;;;;4986777;28;20417;-73
2022/01/07 00:02:42;;;;;;;0.27;0.27;;;;;;;;;;4993417;28;20057;-73
2022/01/07 00:05:09;;;;;;;0.80;0.75;;;;;;;;;;4980559;28;20281;-73
2022/01/07 00:07:35;;;;;;;0.70;0.40;;;;;;;;;;4986016;28;20026;-73
2022/01/07 00:10:00;;;;;;;1.70;1.02;;;;;;;;;;4999457;28;20354;-73
2022/01/07 00:12:26;;;;;;;0.25;0.25;;;;;;;;;;4990720;28;20031;-73
2022/01/07 00:14:52;;;;;;;0.10;0.10;;;;;;;;;;4979556;28;20038;-73
2022/01/07 00:17:18;;;;;;;0.08;0.08;;;;;;;;;;4981026;28;20100;-73
2022/01/07 00:19:44;;;;;;;0.13;0.13;;;;;;;;;;4981696;28;20041;-73
2022/01/07 00:22:10;;;;;;;0.30;0.30;;;;;;;;;;4997408;28;20541;-73
2022/01/07 00:24:36;;;;;;;0.30;0.30;;;;;;;;;;4987127;28;20046;-73
2022/01/07 00:27:02;;;;;;;0.57;0.57;;;;;;;;;;4986786;28;20480;-73
2022/01/07 00:29:28;;;;;;;0.10;0.10;;;;;;;;;;4976650;28;20159;-73
2022/01/07 00:31:54;;;;;;;0.22;0.22;;;;;;;;;;4988520;28;20099;-73
2022/01/07 00:34:20;;;;;;;12.25;0.50;;;;;;;;;;4991724;28;20030;-73
2022/01/07 00:36:46;;;;;;;0.10;0.10;;;;;;;;;;4986829;28;20496;-73
2022/01/07 00:39:11;;;;;;;0.20;0.20;;;;;;;;;;4991410;28;20030;-73
2022/01/07 00:41:37;;;;;;;0.10;0.10;;;;;;;;;;4989083;28;20089;-73
2022/01/07 00:44:04;;;;;;;0.38;0.38;;;;;;;;;;4977222;28;20105;-73
2022/01/07 00:46:30;;;;;;;0.40;0.40;;;;;;;;;;4990156;28;20149;-73
2022/01/07 00:48:56;;;;;;;0.15;0.15;;;;;;;;;;4981535;28;20034;-73
2022/01/07 00:51:22;;;;;;;1.15;0.75;;;;;;;;;;4987626;28;20037;-73
2022/01/07 00:53:48;;;;;;;0.52;0.52;;;;;;;;;;4993928;28;20042;-73
2022/01/07 00:56:14;;;;;;;0.30;0.30;;;;;;;;;;4998327;28;20062;-73
2022/01/07 00:58:40;;;;;;;10.05;3.03;;;;;;;;;;4986656;28;20089;-72
2022/01/07 01:01:06;;;;;;;0.63;0.63;;;;;;;;;;4982561;28;20038;-73
2022/01/07 01:03:32;;;;;;;0.10;0.10;;;;;;;;;;4984685;28;20033;-73
2022/01/07 01:05:58;;;;;;;0.35;0.35;;;;;;;;;;4983465;28;20497;-73
2022/01/07 01:08:25;;;;;;;0.30;0.30;;;;;;;;;;4987114;28;20561;-73
2022/01/07 01:10:51;;;;;;;0.10;0.10;;;;;;;;;;4985375;28;20030;-72
2022/01/07 01:13:17;;;;;;;0.20;0.20;;;;;;;;;;4983674;28;20030;-73
2022/01/07 01:15:43;;;;;;;0.28;0.28;;;;;;;;;;4982602;28;20030;-73
2022/01/07 01:18:09;;;;;;;0.43;0.43;;;;;;;;;;4983375;28;20080;-73
2022/01/07 01:20:35;;;;;;;0.10;0.10;;;;;;;;;;4985176;28;20022;-72
2022/01/07 01:23:01;;;;;;;0.43;0.43;;;;;;;;;;4980775;28;20062;-72
2022/01/07 01:25:27;;;;;;;0.10;0.10;;;;;;;;;;4981449;28;20546;-73
2022/01/07 01:27:54;;;;;;;0.38;0.38;;;;;;;;;;4990656;28;20030;-73
2022/01/07 01:30:20;;;;;;;0.75;0.75;;;;;;;;;;4986394;28;20025;-73
2022/01/07 01:32:47;;;;;;;2.72;0.32;;;;;;;;;;4989528;28;20050;-73
2022/01/07 01:35:13;;;;;;;0.95;0.82;;;;;;;;;;4990933;28;20567;-73
2022/01/07 01:37:40;;;;;;;0.10;0.10;;;;;;;;;;4998648;28;20560;-72
2022/01/07 01:40:09;;;;;;;0.15;0.15;;;;;;;;;;4979680;28;20030;-73
2022/01/07 01:42:35;;;;;;;0.20;0.20;;;;;;;;;;4994174;28;20022;-73
2022/01/07 01:45:01;;;;;;;1.85;0.50;;;;;;;;;;4978597;28;20496;-73
2022/01/07 01:47:27;;;;;;;2.45;0.73;;;;;;;;;;4981970;28;20027;-72
2022/01/07 01:49:52;;;;;;;0.32;0.32;;;;;;;;;;4977491;28;20038;-73
2022/01/07 01:52:18;;;;;;;0.55;0.47;;;;;;;;;;4976945;28;20036;-73
2022/01/07 01:54:44;;;;;;;0.20;0.20;;;;;;;;;;4975876;28;20023;-73
2022/01/07 01:57:13;;;;;;;0.70;0.70;;;;;;;;;;4976489;28;20034;-73
2022/01/07 01:59:39;;;;;;;0.85;0.80;;;;;;;;;;4987663;28;20038;-73
2022/01/07 02:02:05;;;;;;;6.80;2.08;;;;;;;;;;4984190;28;20037;-73
2022/01/07 02:04:31;;;;;;;4.38;2.00;;;;;;;;;;4980857;28;20152;-73
2022/01/07 02:06:57;;;;;;;0.88;0.40;;;;;;;;;;4980843;28;20486;-73
2022/01/07 02:09:31;;;;;;;0.20;0.20;;;;;;;;;;4989622;28;20548;-72
2022/01/07 02:11:57;;;;;;;2.03;1.02;;;;;;;;;;4986886;28;20034;-73
2022/01/07 02:14:32;;;;;;;0.03;0.03;;;;;;;;;;4999323;28;20505;-72
2022/01/07 02:17:05;;;;;;;0.40;0.40;;;;;;;;;;4988087;28;20041;-73
2022/01/07 02:19:31;;;;;;;0.10;0.10;;;;;;;;;;4982741;28;20030;-73
2022/01/07 02:21:57;;;;;;;2.83;2.05;;;;;;;;;;4983201;28;20027;-73
2022/01/07 02:24:23;;;;;;;0.10;0.10;;;;;;;;;;4980381;28;20030;-72
2022/01/07 02:26:49;;;;;;;0.43;0.43;;;;;;;;;;4983803;28;20030;-72
2022/01/07 02:29:15;;;;;;;0.20;0.20;;;;;;;;;;4983203;28;20042;-73
2022/01/07 02:31:41;;;;;;;1.23;0.95;;;;;;;;;;4975666;28;20030;-73
2022/01/07 02:34:07;;;;;;;0.20;0.20;;;;;;;;;;4984685;28;20053;-73
2022/01/07 02:36:32;;;;;;;0.08;0.08;;;;;;;;;;4981950;28;20069;-72
2022/01/07 02:38:58;;;;;;;0.10;0.10;;;;;;;;;;4980454;28;20045;-73
2022/01/07 02:41:24;;;;;;;0.20;0.20;;;;;;;;;;4980533;28;20018;-73
2022/01/07 02:43:50;;;;;;;0.20;0.20;;;;;;;;;;4996567;28;20113;-72
2022/01/07 02:46:16;;;;;;;0.08;0.08;;;;;;;;;;4974809;28;20418;-72
2022/01/07 02:48:42;;;;;;;0.30;0.30;;;;;;;;;;4975025;28;20031;-73
2022/01/07 02:51:08;;;;;;;0.15;0.15;;;;;;;;;;4977396;28;20035;-73
2022/01/07 02:53:34;;;;;;;0.10;0.10;;;;;;;;;;4986263;28;20164;-73
2022/01/07 02:56:00;;;;;;;0.20;0.20;;;;;;;;;;4985019;28;20477;-72
2022/01/07 02:58:26;;;;;;;0.20;0.20;;;;;;;;;;4986947;28;20389;-73
2022/01/07 03:00:52;;;;;;;0.10;0.10;;;;;;;;;;4982790;28;20061;-72
2022/01/07 03:03:18;;;;;;;0.05;0.05;;;;;;;;;;4977369;28;20034;-73
2022/01/07 03:05:44;;;;;;;0.43;0.43;;;;;;;;;;4986445;28;20031;-73
2022/01/07 03:08:11;;;;;;;1.55;0.90;;;;;;;;;;4980911;28;20507;-73
2022/01/07 03:10:37;;;;;;;0.10;0.10;;;;;;;;;;5000009;28;20667;-73
2022/01/07 03:13:03;;;;;;;0.20;0.20;;;;;;;;;;4988264;28;20034;-73
2022/01/07 03:15:30;;;;;;;0.15;0.15;;;;;;;;;;4984676;28;20057;-73
2022/01/07 03:17:56;;;;;;;0.13;0.13;;;;;;;;;;4982379;28;20367;-72
2022/01/07 03:20:22;;;;;;;0.25;0.25;;;;;;;;;;4989767;28;20106;-72
2022/01/07 03:22:48;;;;;;;0.95;0.95;;;;;;;;;;4977397;28;20041;-73
2022/01/07 03:25:15;;;;;;;0.32;0.32;;;;;;;;;;4960736;28;20041;-73
2022/01/07 03:27:41;;;;;;;0.32;0.32;;;;;;;;;;4976566;28;20029;-72
2022/01/07 03:30:17;;;;;;;0.00;0.00;;;;;;;;;;4979903;28;20154;-73
2022/01/07 03:32:43;;;;;;;0.10;0.10;;;;;;;;;;4997910;28;20026;-73
2022/01/07 03:35:11;;;;;;;0.15;0.15;;;;;;;;;;4981700;28;20507;-72
2022/01/07 03:37:37;;;;;;;0.10;0.10;;;;;;;;;;4994169;28;20041;-73
2022/01/07 03:40:04;;;;;;;0.10;0.10;;;;;;;;;;4978651;28;20108;-73
2022/01/07 03:42:30;;;;;;;1.83;0.63;;;;;;;;;;4995439;28;20029;-72
2022/01/07 03:44:56;;;;;;;0.20;0.20;;;;;;;;;;4990319;28;20409;-73
2022/01/07 03:47:26;;;;;;;1.70;1.60;;;;;;;;;;4985860;28;20054;-74
2022/01/07 03:49:52;;;;;;;1.48;0.60;;;;;;;;;;4980606;28;20022;-73
2022/01/07 03:52:18;;;;;;;1.77;0.75;;;;;;;;;;4992396;28;20045;-72
2022/01/07 03:54:44;;;;;;;0.30;0.30;;;;;;;;;;4989140;28;20667;-73
2022/01/07 03:57:10;;;;;;;0.30;0.30;;;;;;;;;;4990208;28;20049;-72
2022/01/07 03:59:36;;;;;;;0.00;0.00;;;;;;;;;;4979240;28;20034;-73
2022/01/07 04:02:02;;;;;;;0.10;0.10;;;;;;;;;;4979143;28;20031;-73
2022/01/07 04:04:28;;;;;;;0.60;0.60;;;;;;;;;;4984837;28;20495;-73
2022/01/07 04:06:54;;;;;;;0.30;0.30;;;;;;;;;;4977036;28;20046;-73
2022/01/07 04:09:20;;;;;;;0.10;0.10;;;;;;;;;;4984847;28;20397;-77
2022/01/07 04:11:46;;;;;;;0.10;0.10;;;;;;;;;;4983691;28;20027;-76
2022/01/07 04:14:12;;;;;;;0.22;0.22;;;;;;;;;;4988930;28;20519;-73
2022/01/07 04:16:38;;;;;;;0.52;0.50;;;;;;;;;;4991556;28;20030;-72
2022/01/07 04:19:04;;;;;;;4.28;0.88;;;;;;;;;;4973538;28;20047;-71
2022/01/07 04:21:29;;;;;;;0.30;0.30;;;;;;;;;;4979567;28;20694;-70
2022/01/07 04:23:55;;;;;;;0.50;0.50;;;;;;;;;;4994750;28;20019;-71
2022/01/07 04:26:21;;;;;;;0.30;0.30;;;;;;;;;;4992797;28;20124;-71
2022/01/07 04:28:47;;;;;;;0.10;0.10;;;;;;;;;;4979884;28;20029;-75
2022/01/07 04:31:13;;;;;;;0.30;0.30;;;;;;;;;;4985405;28;20026;-73
2022/01/07 04:33:42;;;;;;;0.45;0.45;;;;;;;;;;4997421;28;20126;-69
2022/01/07 04:36:08;;;;;;;0.17;0.17;;;;;;;;;;4982034;28;20385;-70
2022/01/07 04:38:34;;;;;;;0.10;0.10;;;;;;;;;;4988654;28;20030;-70
2022/01/07 04:41:00;;;;;;;0.08;0.08;;;;;;;;;;4983375;28;20541;-70
2022/01/07 04:43:26;;;;;;;0.52;0.50;;;;;;;;;;4982487;28;20038;-69
2022/01/07 04:46:14;;;;;;;0.10;0.10;;;;;;;;;;4986504;28;20039;-70
2022/01/07 04:48:43;;;;;;;1.67;1.15;;;;;;;;;;4972554;28;20029;-70
2022/01/07 04:51:10;;;;;;;0.25;0.25;;;;;;;;;;4995772;28;20045;-70
2022/01/07 04:53:35;;;;;;;0.75;0.63;;;;;;;;;;5008503;28;20030;-70
2022/01/07 04:56:01;;;;;;;13.15;0.82;;;;;;;;;;4981493;28;20038;-70
2022/01/07 04:58:27;;;;;;;0.10;0.10;;;;;;;;;;4975575;28;20018;-71
2022/01/07 05:00:53;;;;;;;0.45;0.45;;;;;;;;;;4986204;28;20057;-71
2022/01/07 05:03:19;;;;;;;0.10;0.10;;;;;;;;;;4983989;28;20037;-71
2022/01/07 05:05:49;;;;;;;0.68;0.63;;;;;;;;;;4980376;28;20177;-71
2022/01/07 05:08:19;;;;;;;0.10;0.10;;;;;;;;;;4987757;28;20030;-70
2022/01/07 05:10:45;;;;;;;0.38;0.38;;;;;;;;;;4974877;28;20257;-70
2022/01/07 05:13:11;;;;;;;0.28;0.28;;;;;;;;;;4993107;28;20041;-69
2022/01/07 05:15:37;;;;;;;1.45;1.15;;;;;;;;;;4986628;28;20027;-69
2022/01/07 05:18:03;;;;;;;0.40;0.40;;;;;;;;;;4981252;28;20038;-71
2022/01/07 05:20:29;;;;;;;0.20;0.20;;;;;;;;;;4985204;28;20025;-71
2022/01/07 05:22:55;;;;;;;0.43;0.43;;;;;;;;;;4987755;28;20671;-71
2022/01/07 05:25:21;;;;;;;0.25;0.25;;;;;;;;;;4985492;28;20427;-71
2022/01/07 05:27:47;;;;;;;0.32;0.32;;;;;;;;;;4989388;28;20117;-71
2022/01/07 05:30:13;;;;;;;0.10;0.10;;;;;;;;;;4989266;28;20022;-71
2022/01/07 05:32:40;;;;;;;1.88;0.65;;;;;;;;;;4989375;28;20018;-71
2022/01/07 05:35:06;;;;;;;0.47;0.47;;;;;;;;;;4984568;28;20038;-71
2022/01/07 05:37:32;;;;;;;0.20;0.20;;;;;;;;;;4986733;28;20477;-70
2022/01/07 05:39:58;;;;;;;0.10;0.10;;;;;;;;;;4985795;28;20037;-71
2022/01/07 05:42:33;;;;;;;0.05;0.05;;;;;;;;;;4988152;28;20473;-71
2022/01/07 05:44:59;;;;;;;0.28;0.28;;;;;;;;;;4986087;28;20555;-70
2022/01/07 05:47:25;;;;;;;0.00;0.00;;;;;;;;;;4987899;28;20022;-70
2022/01/07 05:49:51;;;;;;;0.20;0.20;;;;;;;;;;4985791;28;20076;-71
2022/01/07 05:52:17;;;;;;;0.52;0.52;;;;;;;;;;4982373;28;20445;-70
2022/01/07 05:54:43;;;;;;;1.60;1.33;;;;;;;;;;4985656;28;20026;-71
2022/01/07 05:57:09;;;;;;;0.10;0.10;;;;;;;;;;4987344;28;20027;-71
2022/01/07 05:59:35;;;;;;;0.10;0.10;;;;;;;;;;4987144;28;20460;-71
2022/01/07 06:02:01;;;;;;;0.38;0.38;;;;;;;;;;4985485;28;20117;-71
2022/01/07 06:04:27;;;;;;;0.17;0.17;;;;;;;;;;4989602;28;20030;-71
2022/01/07 06:06:53;;;;;;;0.45;0.30;;;;;;;;;;4987968;28;20060;-71
2022/01/07 06:09:18;;;;;;;0.70;0.47;;;;;;;;;;4983992;28;20084;-71
2022/01/07 06:11:45;;;;;;;0.08;0.08;;;;;;;;;;4984397;28;20527;-70
2022/01/07 06:14:11;;;;;;;0.28;0.28;;;;;;;;;;4981743;28;20045;-71
2022/01/07 06:16:37;;;;;;;0.30;0.30;;;;;;;;;;4987804;28;20030;-71
2022/01/07 06:19:03;;;;;;;0.17;0.17;;;;;;;;;;4986989;28;20467;-71
2022/01/07 06:21:30;;;;;;;0.28;0.28;;;;;;;;;;4985381;28;20030;-71
2022/01/07 06:23:58;;;;;;;0.08;0.08;;;;;;;;;;4985289;28;20061;-71
2022/01/07 06:26:24;;;;;;;0.10;0.10;;;;;;;;;;4976599;28;20061;-71
2022/01/07 06:28:51;;;;;;;0.38;0.38;;;;;;;;;;4984176;28;20396;-71
2022/01/07 06:31:17;;;;;;;0.25;0.13;;;;;;;;;;4987235;28;20050;-71
2022/01/07 06:33:43;;;;;;;0.63;0.35;;;;;;;;;;4983267;28;20037;-71
2022/01/07 06:36:09;;;;;;;0.25;0.25;;;;;;;;;;4984533;28;20062;-71
2022/01/07 06:38:35;;;;;;;0.10;0.10;;;;;;;;;;4987315;28;20030;-72
2022/01/07 06:41:01;;;;;;;0.77;0.32;;;;;;;;;;4986994;28;20046;-71
2022/01/07 06:43:26;;;;;;;0.10;0.10;;;;;;;;;;4985292;28;20061;-71
2022/01/07 06:46:13;;;;;;;0.85;0.85;;;;;;;;;;4986490;28;20050;-71
2022/01/07 06:48:40;;;;;;;0.10;0.10;;;;;;;;;;4976704;28;20053;-71
2022/01/07 06:51:07;;;;;;;0.13;0.13;;;;;;;;;;4986313;28;20125;-71
2022/01/07 06:53:32;;;;;;;0.10;0.10;;;;;;;;;;4987103;28;20038;-71
2022/01/07 06:55:59;;;;;;;0.40;0.40;;;;;;;;;;4986817;28;20022;-71
2022/01/07 06:58:25;;;;;;;0.10;0.10;;;;;;;;;;4985184;28;20076;-71
2022/01/07 07:00:51;;;;;;;0.10;0.10;;;;;;;;;;4981375;28;20038;-71
2022/01/07 07:03:17;;;;;;;0.25;0.25;;;;;;;;;;4984390;28;20038;-71
2022/01/07 07:05:43;;;;;;;0.15;0.15;;;;;;;;;;4987582;28;20109;-71
2022/01/07 07:08:09;;;;;;;0.17;0.17;;;;;;;;;;4986295;28;20035;-70
2022/01/07 07:10:35;;;;;;;0.10;0.10;;;;;;;;;;4987770;28;20026;-71
2022/01/07 07:13:01;;;;;;;0.10;0.10;;;;;;;;;;4987829;28;20058;-71
2022/01/07 07:15:27;;;;;;;0.10;0.10;;;;;;;;;;4984879;28;20126;-71
2022/01/07 07:17:53;;;;;;;3.95;1.02;;;;;;;;;;4989214;28;20117;-71
2022/01/07 07:20:19;;;;;;;0.63;0.63;;;;;;;;;;4991760;28;20049;-71
2022/01/07 07:22:45;;;;;;;0.00;0.00;;;;;;;;;;4987729;28;20465;-71
2022/01/07 07:25:11;;;;;;;0.10;0.10;;;;;;;;;;4987525;28;20034;-71
2022/01/07 07:27:38;;;;;;;0.10;0.10;;;;;;;;;;4991489;28;20084;-71
2022/01/07 07:30:07;;;;;;;0.22;0.22;;;;;;;;;;4989246;28;20037;-71
2022/01/07 07:32:34;;;;;;;0.00;0.00;;;;;;;;;;4990844;28;20039;-71
2022/01/07 07:37:29;;;;;;;0.10;0.10;;;;;;;;;;4989151;28;20026;-70
2022/01/07 07:40:00;;;;;;;0.13;0.13;;;;;;;;;;4992292;28;20465;-72
2022/01/07 07:42:26;;;;;;;0.10;0.10;;;;;;;;;;5000218;28;20388;-72
2022/01/07 07:44:52;;;;;;;0.55;0.40;;;;;;;;;;4995506;28;20042;-73
2022/01/07 07:47:18;;;;;;;0.10;0.10;;;;;;;;;;5001117;28;20034;-73
2022/01/07 07:49:44;;;;;;;0.00;0.00;;;;;;;;;;5001825;28;20030;-73
2022/01/07 07:52:10;;;;;;;0.00;0.00;;;;;;;;;;4991626;28;20385;-73
2022/01/07 07:54:36;;;;;;;0.10;0.10;;;;;;;;;;4998278;28;20027;-73
2022/01/07 07:57:02;;;;;;;1.00;1.00;;;;;;;;;;4985000;28;20054;-72
2022/01/07 07:59:28;;;;;;;0.10;0.10;;;;;;;;;;4988189;28;20030;-73
2022/01/07 08:01:54;;;;;;;0.65;0.35;;;;;;;;;;4990315;28;20022;-73
2022/01/07 08:04:22;;;;;;;0.10;0.10;;;;;;;;;;4983956;28;20165;-70
2022/01/07 08:06:49;;;;;;;0.30;0.30;;;;;;;;;;4979919;28;20034;-71
2022/01/07 08:09:15;;;;;;;1.10;0.90;;;;;;;;;;4994077;28;20048;-72
2022/01/07 08:11:53;;;;;;;0.00;0.00;;;;;;;;;;4987293;28;20030;-71
2022/01/07 08:17:06;;;;;;;0.13;0.13;;;;;;;;;;4992747;28;20084;-71
2022/01/07 08:19:32;;;;;;;3.33;1.52;;;;;;;;;;4995174;28;20022;-72
2022/01/07 08:21:58;;;;;;;0.35;0.32;;;;;;;;;;4997132;28;20690;-73
2022/01/07 08:24:25;;;;;;;0.30;0.30;;;;;;;;;;4979337;28;20031;-74
2022/01/07 08:26:50;;;;;;;1.75;1.65;;;;;;;;;;4983879;28;20092;-74
2022/01/07 08:29:18;;;;;;;0.30;0.30;;;;;;;;;;5001001;28;20121;-73
2022/01/07 08:36:54;;;;;;;0.10;0.10;;;;;;;;;;4985136;28;20045;-72
2022/01/07 08:39:20;;;;;;;0.00;0.00;;;;;;;;;;4979511;28;20015;-73
2022/01/07 08:41:46;;;;;;;1.73;1.25;;;;;;;;;;4986752;28;20159;-72
2022/01/07 08:44:12;;;;;;;0.15;0.15;;;;;;;;;;4993631;28;20125;-73
2022/01/07 08:46:38;;;;;;;0.40;0.40;;;;;;;;;;4982059;28;20060;-73
2022/01/07 08:49:05;;;;;;;0.55;0.55;;;;;;;;;;4986360;28;20053;-72
2022/01/07 08:51:31;;;;;;;0.10;0.10;;;;;;;;;;4982168;28;20036;-71
2022/01/07 08:53:58;;;;;;;0.90;0.50;;;;;;;;;;4984944;28;20043;-69
2022/01/07 08:56:24;;;;;;;0.13;0.13;;;;;;;;;;4988154;28;20026;-70
2022/01/07 08:58:51;;;;;;;0.28;0.28;;;;;;;;;;4986147;28;20026;-69
2022/01/07 09:01:17;;;;;;;0.00;0.00;;;;;;;;;;4979703;28;20037;-70
2022/01/07 09:03:43;;;;;;;0.10;0.10;;;;;;;;;;4984372;28;20585;-70
2022/01/07 09:06:09;;;;;;;1.05;0.65;;;;;;;;;;4988399;28;20027;-70
2022/01/07 09:08:35;;;;;;;0.10;0.10;;;;;;;;;;4983646;28;20121;-70
2022/01/07 09:11:01;;;;;;;0.28;0.25;;;;;;;;;;4979710;28;20542;-70
2022/01/07 09:13:27;;;;;;;0.10;0.10;;;;;;;;;;4985220;28;20070;-69
2022/01/07 09:15:59;;;;;;;0.63;0.63;;;;;;;;;;4991867;28;20468;-71
2022/01/07 09:18:26;;;;;;;0.15;0.15;;;;;;;;;;4982050;28;20069;-71
2022/01/07 09:21:13;;;;;;;1.45;0.95;;;;;;;;;;4989384;28;20045;-72
2022/01/07 09:23:41;;;;;;;0.20;0.20;;;;;;;;;;4987886;28;20065;-71
2022/01/07 09:26:07;;;;;;;0.28;0.28;;;;;;;;;;4982943;28;20160;-71
2022/01/07 09:28:42;;;;;;;0.35;0.35;;;;;;;;;;4985322;28;20066;-71
2022/01/07 09:31:08;;;;;;;0.55;0.40;;;;;;;;;;4993559;28;20476;-72
2022/01/07 09:33:34;;;;;;;1.38;0.63;;;;;;;;;;4994294;28;20034;-72
2022/01/07 09:36:02;;;;;;;0.50;0.50;;;;;;;;;;4976749;28;20073;-72
2022/01/07 09:38:28;;;;;;;0.40;0.40;;;;;;;;;;4978698;28;20528;-72
2022/01/07 09:40:54;;;;;;;5.18;1.23;;;;;;;;;;4982730;28;20026;-71
2022/01/07 09:43:21;;;;;;;0.13;0.13;;;;;;;;;;4989104;28;20378;-71
2022/01/07 09:45:47;;;;;;;0.00;0.00;;;;;;;;;;4986592;28;20504;-71
2022/01/07 09:48:13;;;;;;;0.22;0.22;;;;;;;;;;4984757;28;20140;-73
2022/01/07 09:50:39;;;;;;;0.10;0.10;;;;;;;;;;4985266;28;20094;-70
2022/01/07 09:53:11;;;;;;;7.78;1.25;;;;;;;;;;4974277;28;20067;-71
2022/01/07 09:55:37;;;;;;;0.75;0.57;;;;;;;;;;4981531;28;20031;-73
2022/01/07 09:58:03;;;;;;;0.10;0.10;;;;;;;;;;4993103;28;20018;-74
2022/01/07 10:00:33;;;;;;;1.48;1.00;;;;;;;;;;4986495;28;20038;-73
2022/01/07 10:03:12;;;;;;;0.20;0.20;;;;;;;;;;4993867;28;20022;-73
2022/01/07 10:05:41;;;;;;;0.57;0.57;;;;;;;;;;4984152;28;20018;-74
2022/01/07 10:08:18;;;;;;;7.90;1.15;;;;;;;;;;4965479;28;20389;-73
2022/01/07 10:10:45;;;;;;;0.40;0.40;;;;;;;;;;4989578;28;20244;-73
2022/01/07 10:13:11;;;;;;;0.32;0.32;;;;;;;;;;4996453;28;20038;-74
2022/01/07 10:15:38;;;;;;;1.33;1.23;;;;;;;;;;4985978;28;20674;-73
2022/01/07 10:18:08;;;;;;;0.63;0.63;;;;;;;;;;4996998;28;20026;-74
2022/01/07 10:20:40;;;;;;;0.10;0.10;;;;;;;;;;4991032;28;20022;-74
2022/01/07 10:23:08;;;;;;;0.43;0.43;;;;;;;;;;4986106;28;20030;-74
2022/01/07 10:25:35;;;;;;;0.57;0.57;;;;;;;;;;4994551;28;20029;-74
2022/01/07 10:28:03;;;;;;;0.17;0.17;;;;;;;;;;4997506;28;20025;-74
2022/01/07 10:30:34;;;;;;;1.98;0.77;;;;;;;;;;4985016;28;20062;-74
2022/01/07 10:33:00;;;;;;;0.30;0.30;;;;;;;;;;4983320;28;20533;-74
2022/01/07 10:35:29;;;;;;;0.30;0.30;;;;;;;;;;4990252;28;20035;-72
2022/01/07 10:37:57;;;;;;;0.95;0.80;;;;;;;;;;4987024;28;20641;-72
2022/01/07 10:40:23;;;;;;;0.30;0.30;;;;;;;;;;4985322;28;20026;-75
2022/01/07 10:42:52;;;;;;;0.30;0.30;;;;;;;;;;4985446;28;20037;-73
2022/01/07 10:45:19;;;;;;;0.13;0.13;;;;;;;;;;4994764;28;20064;-73
2022/01/07 10:47:52;;;;;;;0.38;0.28;;;;;;;;;;4994058;28;20025;-74
2022/01/07 10:50:25;;;;;;;0.52;0.52;;;;;;;;;;4993093;28;20103;-73
2022/01/07 10:53:09;;;;;;;0.10;0.10;;;;;;;;;;4975064;28;20030;-73
2022/01/07 10:55:35;;;;;;;0.55;0.55;;;;;;;;;;5009316;28;20045;-73
2022/01/07 10:58:27;;;;;;;2.30;1.55;;;;;;;;;;4984244;28;20026;-74
2022/01/07 11:00:53;;;;;;;0.68;0.45;;;;;;;;;;5003528;28;20392;-74
2022/01/07 11:03:35;;;;;;;1.08;0.98;;;;;;;;;;4994309;28;20027;-74
2022/01/07 11:06:02;;;;;;;0.75;0.63;;;;;;;;;;4997304;28;20037;-73
2022/01/07 11:08:28;;;;;;;0.10;0.10;;;;;;;;;;4983603;28;20532;-71
2022/01/07 11:10:56;;;;;;;0.90;0.90;;;;;;;;;;4991950;28;20053;-71
2022/01/07 11:13:22;;;;;;;0.10;0.10;;;;;;;;;;4993207;28;20066;-71
2022/01/07 11:15:48;;;;;;;0.25;0.17;;;;;;;;;;5004635;28;20077;-71
2022/01/07 11:18:14;;;;;;;0.13;0.13;;;;;;;;;;4988897;28;20027;-71
2022/01/07 11:20:39;;;;;;;2.08;1.15;;;;;;;;;;4982815;28;20500;-71
2022/01/07 11:23:06;;;;;;;0.10;0.10;;;;;;;;;;5006651;28;20029;-71
2022/01/07 11:25:35;;;;;;;0.10;0.10;;;;;;;;;;4984405;28;20026;-71
2022/01/07 11:28:01;;;;;;;0.40;0.40;;;;;;;;;;4994125;28;20074;-72
2022/01/07 11:30:35;;;;;;;0.10;0.10;;;;;;;;;;4995705;28;20030;-71
2022/01/07 11:33:14;;;;;;;2.83;0.93;;;;;;;;;;4984732;28;20023;-71
2022/01/07 11:35:41;;;;;;;0.10;0.10;;;;;;;;;;4989682;28;20069;-72
2022/01/07 11:38:13;;;;;;;0.30;0.30;;;;;;;;;;4980575;28;20513;-72
2022/01/07 11:40:39;;;;;;;0.25;0.25;;;;;;;;;;4995173;28;20026;-71
2022/01/07 11:43:08;;;;;;;0.52;0.52;;;;;;;;;;4989351;28;20393;-72
2022/01/07 11:45:34;;;;;;;0.28;0.28;;;;;;;;;;4984014;28;20094;-71
2022/01/07 11:48:13;;;;;;;0.22;0.22;;;;;;;;;;4983678;28;20026;-71
2022/01/07 11:50:48;;;;;;;0.35;0.35;;;;;;;;;;4997394;28;20034;-72
2022/01/07 11:53:14;;;;;;;0.10;0.10;;;;;;;;;;4982835;28;20164;-71
2022/01/07 11:55:44;;;;;;;2.13;0.75;;;;;;;;;;4976347;28;20063;-71
2022/01/07 11:58:11;;;;;;;0.10;0.10;;;;;;;;;;4998962;28;20029;-71
2022/01/07 12:00:57;;;;;;;0.17;0.17;;;;;;;;;;5002267;28;20037;-71
2022/01/07 12:03:33;;;;;;;0.15;0.15;;;;;;;;;;4987296;28;20489;-71
2022/01/07 12:05:59;;;;;;;0.10;0.10;;;;;;;;;;4980400;28;20457;-71
2022/01/07 12:08:37;;;;;;;0.00;0.00;;;;;;;;;;4982814;28;20078;-73
2022/01/07 12:11:10;;;;;;;0.85;0.57;;;;;;;;;;4987951;28;20033;-73
2022/01/07 12:13:39;;;;;;;0.93;0.68;;;;;;;;;;5006758;28;20503;-72
2022/01/07 12:16:11;;;;;;;0.00;0.00;;;;;;;;;;4983418;28;20030;-73
2022/01/07 12:18:37;;;;;;;1.05;0.95;;;;;;;;;;4985890;28;20388;-73
2022/01/07 12:21:03;;;;;;;1.13;1.10;;;;;;;;;;4987829;28;20480;-73
2022/01/07 12:23:30;;;;;;;0.88;0.63;;;;;;;;;;4981186;28;20121;-73
2022/01/07 12:26:01;;;;;;;0.30;0.30;;;;;;;;;;4988511;28;20030;-72
2022/01/07 12:28:27;;;;;;;0.20;0.20;;;;;;;;;;4982380;28;20451;-73
2022/01/07 12:31:05;;;;;;;1.17;1.08;;;;;;;;;;4994145;28;20485;-72
2022/01/07 12:33:31;;;;;;;0.57;0.57;;;;;;;;;;4991521;28;20128;-73
2022/01/07 12:35:57;;;;;;;0.55;0.55;;;;;;;;;;4981357;28;20030;-72
2022/01/07 12:38:23;;;;;;;0.10;0.10;;;;;;;;;;4988674;28;20027;-73
2022/01/07 12:40:53;;;;;;;1.00;0.98;;;;;;;;;;4990222;28;20393;-73
2022/01/07 12:43:22;;;;;;;0.90;0.63;;;;;;;;;;5001486;28;20503;-73
2022/01/07 12:45:58;;;;;;;0.22;0.22;;;;;;;;;;4997150;28;20046;-73
2022/01/07 12:48:38;;;;;;;4.72;1.15;;;;;;;;;;4995698;28;20022;-73
2022/01/07 12:51:05;;;;;;;0.47;0.38;;;;;;;;;;4990073;28;20034;-73
2022/01/07 12:53:32;;;;;;;0.20;0.20;;;;;;;;;;4994070;28;20034;-72
2022/01/07 12:56:19;;;;;;;1.05;0.77;;;;;;;;;;4990850;28;20070;-72
2022/01/07 12:58:45;;;;;;;0.30;0.30;;;;;;;;;;4981708;28;20022;-73
2022/01/07 13:01:21;;;;;;;0.10;0.10;;;;;;;;;;5003448;28;20392;-72
2022/01/07 13:03:47;;;;;;;0.10;0.10;;;;;;;;;;4995454;28;20031;-72
2022/01/07 13:06:13;;;;;;;1.33;0.82;;;;;;;;;;4987755;28;20037;-73
2022/01/07 13:08:40;;;;;;;0.10;0.10;;;;;;;;;;4988833;28;20038;-72
2022/01/07 13:11:07;;;;;;;0.10;0.10;;;;;;;;;;4985549;28;20025;-73
2022/01/07 13:13:33;;;;;;;0.32;0.32;;;;;;;;;;5003072;28;20097;-73
2022/01/07 13:16:00;;;;;;;0.10;0.10;;;;;;;;;;5000078;28;20476;-73
2022/01/07 13:18:26;;;;;;;0.17;0.17;;;;;;;;;;4997140;28;20100;-72
2022/01/07 13:20:55;;;;;;;0.30;0.30;;;;;;;;;;5000093;28;20052;-73
2022/01/07 13:23:22;;;;;;;0.85;0.68;;;;;;;;;;4976470;28;20496;-72
2022/01/07 13:25:48;;;;;;;0.90;0.90;;;;;;;;;;4990432;28;20054;-72
2022/01/07 13:28:14;;;;;;;0.15;0.15;;;;;;;;;;4986731;28;20022;-73
2022/01/07 13:30:44;;;;;;;0.30;0.30;;;;;;;;;;4988110;28;20038;-72
2022/01/07 13:33:11;;;;;;;0.57;0.57;;;;;;;;;;4977620;28;20118;-73
2022/01/07 13:35:41;;;;;;;0.40;0.40;;;;;;;;;;4977368;28;20030;-82
2022/01/07 13:38:14;;;;;;;0.17;0.17;;;;;;;;;;4978830;28;20030;-74
2022/01/07 13:40:40;;;;;;;0.20;0.20;;;;;;;;;;4983172;28;20039;-73
2022/01/07 13:43:07;;;;;;;0.90;0.90;;;;;;;;;;4979392;28;20030;-74
2022/01/07 13:45:33;;;;;;;0.30;0.30;;;;;;;;;;4985241;28;20058;-74
2022/01/07 13:48:25;;;;;;;1.17;0.82;;;;;;;;;;4977141;28;20019;-74
2022/01/07 13:50:51;;;;;;;0.10;0.10;;;;;;;;;;4981845;28;20445;-76
2022/01/07 13:53:19;;;;;;;0.55;0.55;;;;;;;;;;4982737;28;20109;-75
2022/01/07 13:55:46;;;;;;;0.08;0.08;;;;;;;;;;4983501;28;20023;-74
2022/01/07 13:58:16;;;;;;;0.40;0.40;;;;;;;;;;4987587;28;20030;-74
2022/01/07 14:00:43;;;;;;;0.47;0.47;;;;;;;;;;4977818;28;20045;-72
2022/01/07 14:03:09;;;;;;;2.10;1.85;;;;;;;;;;4986735;28;20760;-75
2022/01/07 14:05:35;;;;;;;0.10;0.10;;;;;;;;;;4987465;28;20042;-73
2022/01/07 14:08:06;;;;;;;0.47;0.47;;;;;;;;;;4987406;28;20018;-74
2022/01/07 14:10:35;;;;;;;1.45;0.65;;;;;;;;;;4989685;28;20090;-74
2022/01/07 14:13:04;;;;;;;0.43;0.43;;;;;;;;;;4986445;28;20027;-73
2022/01/07 14:15:32;;;;;;;2.40;0.73;;;;;;;;;;4983967;28;20053;-74
2022/01/07 14:18:12;;;;;;;0.35;0.35;;;;;;;;;;4978121;28;21121;-74
2022/01/07 14:20:43;;;;;;;0.20;0.20;;;;;;;;;;4997458;28;20029;-73
2022/01/07 14:23:13;;;;;;;0.22;0.22;;;;;;;;;;4980083;28;20030;-74
2022/01/07 14:26:25;;;;;;;0.77;0.77;;;;;;;;;;4978861;28;20030;-73
2022/01/07 14:28:26;;;;;;;0.90;0.90;;;;;;;;;;4973781;28;20084;-73
2022/01/07 14:30:51;;;;;;;0.63;0.63;;;;;;;;;;5002332;28;20022;-73
2022/01/07 14:33:17;;;;;;;0.10;0.10;;;;;;;;;;4976504;28;20465;-74
2022/01/07 14:35:44;;;;;;;0.10;0.10;;;;;;;;;;4976049;28;20027;-74
2022/01/07 14:38:10;;;;;;;0.20;0.20;;;;;;;;;;4976242;28;20023;-75
2022/01/07 14:40:37;;;;;;;0.03;0.03;;;;;;;;;;4995859;28;20031;-73
2022/01/07 14:43:03;;;;;;;0.35;0.35;;;;;;;;;;4981227;28;20015;-80
2022/01/07 14:45:29;;;;;;;0.30;0.30;;;;;;;;;;4984608;28;20047;-73
2022/01/07 14:47:55;;;;;;;0.55;0.55;;;;;;;;;;4964215;28;20014;-73
2022/01/07 14:50:21;;;;;;;5.75;0.50;;;;;;;;;;4988014;28;20445;-73
2022/01/07 14:52:47;;;;;;;1.30;0.47;;;;;;;;;;4982817;28;20529;-74
2022/01/07 14:55:13;;;;;;;0.20;0.20;;;;;;;;;;4992904;28;20061;-73